Time;durP1;ratioP1;P1;durP2;ratioP2;P2;SDS_P1;SDS_P2;PMS_P1;PMS_P2;Temp;Humidity;BMP_temperature;BMP_pressure;BME280_temperature;BME280_humidity;BME280_pressure;Samples;Min_cycle;Max_cycle;Signal;HPM_P1;HPM_P2
2021/11/18 00:00:27;;;;;;;;;10.00;10.00;;;;;22.10;40.75;102811.59;4972794;28;45581;-65
2021/11/18 00:02:53;;;;;;;;;9.75;7.25;;;;;22.15;40.89;102822.63;4974366;28;45472;-65
2021/11/18 00:05:22;;;;;;;;;11.25;10.25;;;;;22.15;40.45;102816.47;4968648;28;45544;-65
2021/11/18 00:07:50;;;;;;;;;8.00;7.75;;;;;22.18;40.99;102829.47;4968847;28;45421;-64
2021/11/18 00:10:21;;;;;;;;;10.75;9.75;;;;;22.13;40.41;102821.94;4968711;28;45381;-65
2021/11/18 00:12:47;;;;;;;;;10.50;9.25;;;;;22.17;40.84;102839.25;4972263;28;45272;-65
2021/11/18 00:15:14;;;;;;;;;9.75;8.50;;;;;22.16;40.68;102824.31;4969415;28;46556;-64
2021/11/18 00:17:40;;;;;;;;;8.00;7.25;;;;;22.15;40.64;102830.59;4968436;28;45359;-64
2021/11/18 00:20:08;;;;;;;;;10.50;10.25;;;;;22.18;40.74;102830.31;4967576;28;46092;-65
2021/11/18 00:22:34;;;;;;;;;10.25;8.50;;;;;22.18;40.31;102824.19;4968676;28;45486;-64
2021/11/18 00:25:00;;;;;;;;;8.75;8.50;;;;;22.17;40.42;102822.53;4970219;28;47159;-65
2021/11/18 00:27:27;;;;;;;;;11.00;8.00;;;;;22.18;40.96;102825.03;4972069;28;45632;-65
2021/11/18 00:29:53;;;;;;;;;13.50;11.00;;;;;22.18;40.85;102829.47;4968152;28;45494;-65
2021/11/18 00:32:18;;;;;;;;;8.25;8.00;;;;;22.13;40.29;102810.47;4968429;28;45339;-64
2021/11/18 00:34:44;;;;;;;;;9.50;8.50;;;;;22.11;40.69;102807.13;4966864;28;45373;-65
2021/11/18 00:37:09;;;;;;;;;9.50;8.25;;;;;22.14;40.54;102815.66;4968853;28;45435;-64
2021/11/18 00:39:34;;;;;;;;;9.25;9.00;;;;;22.16;40.88;102821.66;4971332;28;45460;-65
2021/11/18 00:42:00;;;;;;;;;9.75;8.25;;;;;22.11;40.39;102812.44;4969786;28;45374;-65
2021/11/18 00:44:25;;;;;;;;;9.75;9.75;;;;;22.14;40.36;102812.19;4972164;28;46623;-64
2021/11/18 00:46:51;;;;;;;;;10.00;10.00;;;;;22.09;40.65;102809.94;4971912;28;45435;-63
2021/11/18 00:49:16;;;;;;;;;9.00;9.00;;;;;22.10;40.86;102806.28;4972405;28;45434;-63
2021/11/18 00:51:43;;;;;;;;;9.25;9.00;;;;;22.11;40.39;102804.47;4972643;28;45531;-63
2021/11/18 00:54:09;;;;;;;;;9.00;9.00;;;;;22.13;40.53;102815.78;4974239;28;46255;-63
2021/11/18 00:56:35;;;;;;;;;9.75;9.75;;;;;22.13;40.92;102813.13;4972380;28;45448;-63
2021/11/18 00:59:01;;;;;;;;;14.75;11.25;;;;;22.13;40.37;102810.47;4971912;28;45323;-63
2021/11/18 01:01:35;;;;;;;;;10.00;9.75;;;;;22.13;40.90;102811.31;4972346;28;45480;-63
2021/11/18 01:04:01;;;;;;;;;12.00;8.75;;;;;22.14;40.37;102810.38;4972185;28;47310;-64
2021/11/18 01:06:26;;;;;;;;;12.50;11.00;;;;;22.07;40.17;102807.38;4972254;28;45616;-63
2021/11/18 01:08:51;;;;;;;;;10.75;9.25;;;;;22.11;40.02;102810.63;4972749;28;45371;-63
2021/11/18 01:11:24;;;;;;;;;8.00;8.00;;;;;22.13;40.39;102816.63;4972354;28;45572;-63
2021/11/18 01:13:51;;;;;;;;;10.25;9.00;;;;;22.14;40.39;102810.38;4970268;28;45488;-63
2021/11/18 01:16:24;;;;;;;;;10.00;10.00;;;;;22.14;40.63;102804.22;4971959;28;45453;-63
2021/11/18 01:18:49;;;;;;;;;11.00;9.75;;;;;22.11;40.28;102805.31;4971037;28;45412;-63
2021/11/18 01:21:16;;;;;;;;;10.75;9.75;;;;;22.11;40.81;102802.69;4969613;28;45481;-63
2021/11/18 01:23:42;;;;;;;;;12.25;10.25;;;;;22.11;40.68;102802.69;4968713;28;45517;-63
2021/11/18 01:26:11;;;;;;;;;13.75;9.00;;;;;22.11;40.34;102807.97;4969243;28;45450;-63
2021/11/18 01:28:38;;;;;;;;;7.25;6.25;;;;;22.11;40.90;102812.44;4966805;28;45362;-63
2021/11/18 01:31:04;;;;;;;;;8.25;5.50;;;;;22.06;40.17;102813.69;4955146;28;45340;-63
2021/11/18 01:33:30;;;;;;;;;11.00;9.50;;;;;22.12;40.23;102824.72;4971099;28;45484;-63
2021/11/18 01:35:56;;;;;;;;;8.75;8.25;;;;;22.05;40.20;102814.63;4969615;28;45387;-63
2021/11/18 01:38:23;;;;;;;;;13.00;10.50;;;;;22.12;40.20;102843.28;4967809;28;45573;-63
2021/11/18 01:40:56;;;;;;;;;12.00;9.00;;;;;22.13;40.13;102837.84;4967349;28;45353;-63
2021/11/18 01:43:27;;;;;;;;;10.00;10.00;;;;;22.14;40.74;102842.19;4967514;28;46328;-63
2021/11/18 01:45:52;;;;;;;;;10.25;8.25;;;;;22.12;40.50;102838.78;4968730;28;45438;-63
2021/11/18 01:48:19;;;;;;;;;11.75;9.25;;;;;22.11;40.54;102844.25;4970387;28;45411;-63
2021/11/18 01:50:48;;;;;;;;;12.25;10.00;;;;;22.13;40.10;102851.09;4969023;28;45403;-63
2021/11/18 01:53:17;;;;;;;;;11.25;10.75;;;;;22.14;40.00;102842.19;4965756;28;47380;-63
2021/11/18 01:55:45;;;;;;;;;10.00;9.00;;;;;22.12;40.09;102836.16;4967106;28;45475;-63
2021/11/18 01:58:13;;;;;;;;;11.50;10.00;;;;;22.13;40.48;102837.00;4967792;28;45445;-63
2021/11/18 02:00:47;;;;;;;;;11.75;10.00;;;;;22.14;40.47;102838.69;4956425;28;45320;-63
2021/11/18 02:03:12;;;;;;;;;8.50;7.75;;;;;22.14;40.33;102843.97;4969673;28;46321;-63
2021/11/18 02:05:50;;;;;;;;;13.00;10.25;;;;;22.07;40.02;102848.97;4967587;28;45362;-63
2021/11/18 02:08:16;;;;;;;;;10.50;9.75;;;;;22.11;40.08;102845.09;4971714;28;45466;-63
2021/11/18 02:10:44;;;;;;;;;10.50;10.50;;;;;22.11;40.50;102844.25;4970831;28;45313;-63
2021/11/18 02:13:12;;;;;;;;;11.25;11.25;;;;;22.12;40.01;102841.44;4970835;28;45537;-62
2021/11/18 02:15:43;;;;;;;;;12.50;11.00;;;;;22.11;39.93;102845.09;4971735;28;45370;-63
2021/11/18 02:18:24;;;;;;;;;14.25;10.75;;;;;22.10;40.38;102846.06;4969487;28;45409;-63
2021/11/18 02:20:56;;;;;;;;;12.50;11.00;;;;;22.11;40.23;102849.53;4958005;28;45462;-63
2021/11/18 02:23:24;;;;;;;;;12.00;9.50;;;;;22.10;39.82;102855.81;4963888;28;46348;-63
2021/11/18 02:25:51;;;;;;;;;11.25;9.25;;;;;22.04;40.27;102850.06;4965181;28;45350;-63
2021/11/18 02:28:18;;;;;;;;;12.75;11.00;;;;;22.06;39.93;102842.00;4967172;28;45414;-63
2021/11/18 02:30:47;;;;;;;;;10.00;9.75;;;;;22.07;40.03;102852.44;4970820;28;45340;-63
2021/11/18 02:33:14;;;;;;;;;11.00;10.25;;;;;22.05;40.18;102846.44;4969378;28;47081;-64
2021/11/18 02:35:40;;;;;;;;;12.50;11.25;;;;;22.06;40.15;102839.34;4967641;28;45379;-63
2021/11/18 02:38:07;;;;;;;;;14.00;11.50;;;;;22.07;40.09;102849.81;4966922;28;45387;-63
2021/11/18 02:40:32;;;;;;;;;9.00;9.00;;;;;22.07;40.37;102855.09;4966371;28;45429;-63
2021/11/18 02:43:00;;;;;;;;;9.75;9.00;;;;;22.07;40.45;102854.25;4971333;28;46114;-63
2021/11/18 02:45:30;;;;;;;;;11.75;10.75;;;;;22.07;40.35;102857.75;4974932;28;45376;-63
2021/11/18 02:47:56;;;;;;;;;12.50;11.00;;;;;22.06;39.81;102863.19;4975403;28;45473;-63
2021/11/18 02:50:28;;;;;;;;;11.25;9.50;;;;;22.09;40.57;102860.28;4973213;28;45501;-63
2021/11/18 02:52:56;;;;;;;;;13.50;11.00;;;;;22.09;40.49;102864.75;4973283;28;45578;-63
2021/11/18 02:55:27;;;;;;;;;11.25;9.50;;;;;22.08;39.91;102866.56;4977015;28;45612;-63
2021/11/18 02:57:52;;;;;;;;;11.00;10.25;;;;;22.06;40.30;102861.41;4977221;28;45497;-63
2021/11/18 03:00:23;;;;;;;;;11.00;11.00;;;;;22.07;40.38;102862.22;4978438;28;45391;-63
2021/11/18 03:02:49;;;;;;;;;12.00;10.50;;;;;22.07;40.44;102863.06;4977098;28;46729;-63
2021/11/18 03:05:18;;;;;;;;;10.00;9.25;;;;;22.05;40.31;102856.22;4975191;28;45378;-63
2021/11/18 03:07:44;;;;;;;;;12.25;11.25;;;;;22.01;39.72;102850.34;4976902;28;45348;-63
2021/11/18 03:10:10;;;;;;;;;11.25;9.50;;;;;22.07;40.22;102854.25;4975845;28;45520;-63
2021/11/18 03:12:36;;;;;;;;;11.25;10.00;;;;;22.05;39.93;102858.84;4977230;28;46623;-63
2021/11/18 03:15:04;;;;;;;;;10.25;9.00;;;;;22.07;40.25;102859.56;4979074;28;45514;-63
2021/11/18 03:17:29;;;;;;;;;12.50;11.75;;;;;22.03;40.12;102852.84;4977037;27;45388;-64
2021/11/18 03:19:55;;;;;;;;;12.00;9.00;;;;;22.05;39.66;102850.91;4976838;28;45311;-63
2021/11/18 03:22:20;;;;;;;;;10.25;10.25;;;;;22.10;40.31;102850.50;4976611;28;46654;-63
2021/11/18 03:24:45;;;;;;;;;13.75;11.25;;;;;22.09;40.16;102855.00;4977203;28;45474;-63
2021/11/18 03:27:10;;;;;;;;;13.00;10.50;;;;;22.11;40.29;102862.81;4976096;28;45291;-63
2021/11/18 03:29:36;;;;;;;;;10.50;7.50;;;;;22.12;39.71;102869.78;4971937;28;45401;-63
2021/11/18 03:32:04;;;;;;;;;12.50;10.75;;;;;22.10;40.11;102867.25;4971344;28;47522;-63
2021/11/18 03:34:31;;;;;;;;;10.00;8.00;;;;;22.09;39.87;102870.06;4975353;28;45445;-63
2021/11/18 03:36:58;;;;;;;;;13.50;9.00;;;;;22.12;40.16;102869.78;4976553;28;45271;-65
2021/11/18 03:39:25;;;;;;;;;10.25;9.00;;;;;22.12;40.19;102883.88;4976950;28;45515;-63
2021/11/18 03:41:53;;;;;;;;;12.25;12.25;;;;;22.11;39.55;102886.66;4976786;28;45266;-63
2021/11/18 03:44:19;;;;;;;;;7.75;7.25;;;;;22.11;40.20;102894.63;4974921;28;45417;-63
2021/11/18 03:46:49;;;;;;;;;11.00;11.00;;;;;22.10;39.96;102892.91;4969557;28;45413;-63
2021/11/18 03:49:15;;;;;;;;;11.75;10.00;;;;;22.09;39.66;102878.00;4974720;27;45565;-63
2021/11/18 03:51:41;;;;;;;;;13.25;9.50;;;;;22.08;39.74;102877.16;4976211;28;45334;-63
2021/11/18 03:54:09;;;;;;;;;10.50;9.00;;;;;22.08;39.68;102874.50;4972500;28;45212;-63
2021/11/18 03:56:39;;;;;;;;;12.00;10.75;;;;;22.07;40.20;102878.13;4969118;28;45409;-64
2021/11/18 03:59:17;;;;;;;;;8.25;8.25;;;;;22.05;39.62;102880.91;4968971;28;45304;-63
2021/11/18 04:01:45;;;;;;;;;12.25;9.50;;;;;22.06;39.75;102877.31;4968876;28;45404;-63
2021/11/18 04:04:14;;;;;;;;;10.00;10.00;;;;;22.06;39.72;102879.94;4968917;28;45601;-63
2021/11/18 04:06:41;;;;;;;;;12.00;10.75;;;;;22.06;40.00;102881.75;4957451;28;45224;-63
2021/11/18 04:09:08;;;;;;;;;9.75;9.75;;;;;22.04;40.13;102886.34;4971267;28;45537;-63
2021/11/18 04:11:34;;;;;;;;;10.75;9.00;;;;;22.05;39.75;102885.38;4975772;27;45505;-63
2021/11/18 04:14:00;;;;;;;;;9.75;9.75;;;;;22.03;39.79;102879.38;4962503;28;45426;-63
2021/11/18 04:16:25;;;;;;;;;8.50;7.00;;;;;22.05;39.60;102877.41;4968975;28;45485;-64
2021/11/18 04:18:51;;;;;;;;;9.50;8.50;;;;;22.02;40.09;102878.50;4971689;28;45485;-64
2021/11/18 04:21:17;;;;;;;;;14.00;10.50;;;;;22.04;40.21;102884.53;4970692;28;47135;-64
2021/11/18 04:23:43;;;;;;;;;10.00;9.25;;;;;22.01;39.70;102881.31;4968318;28;45367;-64
2021/11/18 04:26:08;;;;;;;;;9.75;9.50;;;;;22.02;39.82;102886.47;4968881;28;45551;-64
2021/11/18 04:28:34;;;;;;;;;14.75;10.75;;;;;22.03;40.19;102890.81;4971443;28;45391;-64
2021/11/18 04:31:16;;;;;;;;;9.75;9.75;;;;;22.02;40.00;102886.47;4972925;28;45296;-64
2021/11/18 04:33:41;;;;;;;;;12.50;10.75;;;;;22.04;39.85;102889.81;4957955;28;45403;-64
2021/11/18 04:36:10;;;;;;;;;11.00;11.00;;;;;22.05;39.71;102886.22;4974555;28;45400;-64
2021/11/18 04:38:36;;;;;;;;;10.50;10.50;;;;;22.05;40.07;102895.97;4973527;28;45678;-64
2021/11/18 04:41:03;;;;;;;;;12.00;10.00;;;;;22.01;39.62;102889.25;4972344;28;45496;-64
2021/11/18 04:43:29;;;;;;;;;11.00;9.25;;;;;22.00;40.09;102880.47;4972380;28;45452;-64
2021/11/18 04:45:55;;;;;;;;;12.25;11.25;;;;;22.05;39.47;102890.66;4972643;28;45425;-64
2021/11/18 04:48:21;;;;;;;;;10.00;9.00;;;;;22.03;39.75;102888.16;4973517;28;45407;-64
2021/11/18 04:50:47;;;;;;;;;10.00;9.25;;;;;22.04;39.71;102889.81;4973491;28;45414;-64
2021/11/18 04:53:13;;;;;;;;;12.25;10.00;;;;;22.03;39.90;102885.50;4972466;28;45484;-64
2021/11/18 04:55:39;;;;;;;;;10.75;10.50;;;;;22.03;39.99;102874.06;4972597;28;45545;-64
2021/11/18 04:58:05;;;;;;;;;10.50;10.00;;;;;22.01;40.07;102884.81;4972453;28;45436;-64
2021/11/18 05:00:38;;;;;;;;;10.50;10.50;;;;;22.04;39.73;102891.66;4971912;28;47218;-64
2021/11/18 05:03:04;;;;;;;;;12.00;12.00;;;;;22.05;39.93;102883.56;4974172;28;45582;-64
2021/11/18 05:05:30;;;;;;;;;10.00;8.00;;;;;22.02;39.77;102888.28;4971001;28;45228;-64
2021/11/18 05:07:56;;;;;;;;;12.00;8.75;;;;;22.05;39.68;102880.06;4970821;28;45554;-64
2021/11/18 05:10:23;;;;;;;;;15.25;10.50;;;;;22.09;39.55;102885.97;4972147;28;46573;-64
2021/11/18 05:12:48;;;;;;;;;14.00;11.00;;;;;22.07;39.89;102894.03;4972405;28;45434;-64
2021/11/18 05:15:18;;;;;;;;;12.50;11.25;;;;;22.07;39.51;102902.81;4973620;28;45439;-64
2021/11/18 05:17:46;;;;;;;;;13.00;10.25;;;;;22.09;39.62;102912.47;4973573;28;45435;-64
2021/11/18 05:20:11;;;;;;;;;10.50;9.50;;;;;22.07;39.48;102910.78;4971375;28;46092;-63
2021/11/18 05:22:38;;;;;;;;;10.00;10.00;;;;;22.06;39.69;102914.41;4971158;28;45362;-64
2021/11/18 05:25:05;;;;;;;;;12.50;11.25;;;;;22.06;39.87;102913.56;4972275;28;45481;-65
2021/11/18 05:27:31;;;;;;;;;10.25;10.25;;;;;21.99;39.56;102907.94;4972064;28;45588;-65
2021/11/18 05:29:56;;;;;;;;;11.75;11.00;;;;;22.01;39.40;102907.81;4973284;28;46356;-64
2021/11/18 05:32:22;;;;;;;;;11.50;10.75;;;;;22.00;39.92;102914.91;4967795;28;45474;-64
2021/11/18 05:34:47;;;;;;;;;8.50;8.00;;;;;22.04;39.66;102926.13;4964547;28;47105;-65
2021/11/18 05:37:13;;;;;;;;;11.25;9.50;;;;;22.03;39.82;102922.63;4969781;28;45373;-64
2021/11/18 05:39:38;;;;;;;;;11.25;9.25;;;;;22.02;39.93;102930.69;4971028;28;46372;-65
2021/11/18 05:42:04;;;;;;;;;11.00;11.00;;;;;22.03;39.48;102925.28;4969631;28;45426;-64
2021/11/18 05:44:30;;;;;;;;;11.50;10.00;;;;;22.04;39.84;102923.47;4967909;28;45219;-64
2021/11/18 05:46:55;;;;;;;;;10.00;10.00;;;;;22.02;39.38;102914.78;4966226;28;45465;-64
2021/11/18 05:49:21;;;;;;;;;10.75;9.75;;;;;22.00;39.83;102917.56;4967186;28;45519;-64
2021/11/18 05:51:48;;;;;;;;;12.50;9.25;;;;;21.98;39.86;102910.72;4971238;28;45552;-64
2021/11/18 05:54:14;;;;;;;;;11.50;10.25;;;;;22.02;39.86;102912.13;4969120;28;45393;-64
2021/11/18 05:56:42;;;;;;;;;11.50;9.75;;;;;21.97;39.57;102912.53;4968008;28;45288;-64
2021/11/18 05:59:08;;;;;;;;;13.25;11.00;;;;;21.98;39.81;102913.38;4967360;28;46313;-64
2021/11/18 06:01:34;;;;;;;;;9.00;9.00;;;;;22.03;39.55;102929.72;4967345;28;45434;-64
2021/11/18 06:04:00;;;;;;;;;9.50;8.00;;;;;22.02;39.55;102920.06;4969002;28;45492;-64
2021/11/18 06:06:27;;;;;;;;;10.00;9.75;;;;;22.02;39.69;102920.06;4969799;28;45303;-64
2021/11/18 06:08:52;;;;;;;;;9.00;9.00;;;;;22.03;39.55;102924.41;4969111;28;46314;-64
2021/11/18 06:11:19;;;;;;;;;11.25;9.75;;;;;22.02;39.91;102926.22;4974835;28;45387;-64
2021/11/18 06:13:49;;;;;;;;;12.25;11.00;;;;;22.02;39.92;102923.56;4959372;28;45961;-64
2021/11/18 06:16:17;;;;;;;;;9.25;9.25;;;;;22.03;39.42;102927.06;4966900;28;45468;-64
2021/11/18 06:18:43;;;;;;;;;10.00;10.00;;;;;22.00;39.32;102920.22;4969177;28;47112;-64
2021/11/18 06:21:08;;;;;;;;;12.00;9.50;;;;;22.02;39.70;102926.22;4972784;28;45255;-64
2021/11/18 06:23:33;;;;;;;;;13.75;10.00;;;;;22.02;39.45;102926.22;4971306;28;45467;-64
2021/11/18 06:25:59;;;;;;;;;10.00;9.00;;;;;22.03;39.44;102929.72;4969968;28;45385;-64
2021/11/18 06:28:24;;;;;;;;;9.50;7.50;;;;;22.01;39.42;102935.16;4971373;28;45418;-64
2021/11/18 06:30:54;;;;;;;;;7.75;7.75;;;;;22.02;39.80;102934.19;4971026;28;45446;-64
2021/11/18 06:33:21;;;;;;;;;12.00;9.00;;;;;22.03;39.29;102941.16;4972251;28;45430;-65
2021/11/18 06:35:47;;;;;;;;;10.00;9.75;;;;;22.03;39.50;102940.31;4972955;28;45373;-64
2021/11/18 06:38:13;;;;;;;;;12.75;11.00;;;;;22.01;39.00;102937.81;4970930;28;45419;-64
2021/11/18 06:40:38;;;;;;;;;10.25;8.00;;;;;22.00;39.63;102936.13;4970951;28;45285;-64
2021/11/18 06:43:04;;;;;;;;;10.00;9.00;;;;;22.04;39.39;102944.66;4971538;28;45428;-64
2021/11/18 06:45:37;;;;;;;;;12.75;10.25;;;;;22.05;39.54;102941.03;4970759;28;45400;-65
2021/11/18 06:48:04;;;;;;;;;12.50;11.25;;;;;21.98;39.55;102932.75;4972927;28;45994;-65
2021/11/18 06:50:30;;;;;;;;;11.50;11.50;;;;;22.05;39.73;102935.72;4970793;28;45437;-65
2021/11/18 06:52:56;;;;;;;;;8.25;7.00;;;;;22.04;39.55;102926.94;4970909;28;45453;-65
2021/11/18 06:55:22;;;;;;;;;11.25;9.00;;;;;22.05;39.83;102922.47;4970944;28;45419;-64
2021/11/18 06:57:49;;;;;;;;;12.25;11.50;;;;;22.01;39.85;102919.25;4969276;28;46457;-64
2021/11/18 07:00:16;;;;;;;;;15.25;9.50;;;;;22.06;39.73;102937.41;4960673;28;45345;-64
2021/11/18 07:02:42;;;;;;;;;9.25;9.00;;;;;22.04;39.65;102923.47;4969916;28;45558;-64
2021/11/18 07:05:07;;;;;;;;;9.25;8.25;;;;;22.06;39.41;102932.13;4968709;28;45548;-64
2021/11/18 07:07:33;;;;;;;;;10.00;8.75;;;;;22.05;39.51;102938.38;4956782;28;46456;-64
2021/11/18 07:10:02;;;;;;;;;10.75;9.50;;;;;22.06;39.69;102940.06;4968264;28;45501;-64
2021/11/18 07:12:29;;;;;;;;;10.00;9.00;;;;;22.05;40.03;102947.19;4969180;28;45460;-65
2021/11/18 07:14:55;;;;;;;;;9.00;9.00;;;;;22.01;39.68;102940.47;4968528;28;45483;-64
2021/11/18 07:17:21;;;;;;;;;10.00;9.00;;;;;22.06;40.28;102948.03;4967296;28;45490;-64
2021/11/18 07:19:47;;;;;;;;;10.75;9.50;;;;;22.05;39.82;102933.94;4969665;28;45538;-66
2021/11/18 07:22:13;;;;;;;;;9.75;7.00;;;;;22.05;39.74;102943.69;4969562;28;45387;-64
2021/11/18 07:24:39;;;;;;;;;10.50;10.50;;;;;22.05;39.93;102946.34;4970552;28;45372;-64
2021/11/18 07:27:04;;;;;;;;;10.25;8.25;;;;;22.04;40.14;102939.38;4967728;28;46025;-65
2021/11/18 07:29:31;;;;;;;;;8.75;8.00;;;;;22.05;39.83;102941.88;4967100;28;45412;-66
2021/11/18 07:31:56;;;;;;;;;9.75;8.50;;;;;22.02;39.90;102936.84;4969428;28;45536;-66
2021/11/18 07:34:22;;;;;;;;;9.00;8.75;;;;;22.06;40.03;102948.88;4969161;28;45446;-65
2021/11/18 07:36:48;;;;;;;;;13.25;9.00;;;;;22.04;40.13;102932.22;4970794;28;45464;-65
2021/11/18 07:39:18;;;;;;;;;12.00;9.75;;;;;22.07;39.87;102939.09;4971692;28;45279;-65
2021/11/18 07:41:46;;;;;;;;;14.50;12.00;;;;;22.07;40.07;102939.09;4970105;28;45414;-65
2021/11/18 07:44:13;;;;;;;;;8.00;8.00;;;;;22.02;40.22;102943.94;4967318;28;45425;-65
2021/11/18 07:46:38;;;;;;;;;11.25;9.25;;;;;22.05;40.13;102947.19;4968794;28;46135;-65
2021/11/18 07:49:04;;;;;;;;;10.00;9.50;;;;;22.05;39.81;102949.84;4968948;28;45380;-65
2021/11/18 07:51:30;;;;;;;;;11.50;9.50;;;;;22.06;39.98;102959.47;4972552;28;45394;-65
2021/11/18 07:53:55;;;;;;;;;11.50;11.50;;;;;22.06;39.66;102969.22;4957433;28;45342;-65
2021/11/18 07:56:23;;;;;;;;;13.00;9.50;;;;;22.06;39.68;102975.38;4965447;28;45434;-65
2021/11/18 07:58:49;;;;;;;;;8.00;8.00;;;;;22.01;39.80;102966.97;4968454;28;45445;-65
2021/11/18 08:01:15;;;;;;;;;8.00;8.00;;;;;22.04;39.83;102972.00;4968838;28;45498;-65
2021/11/18 08:03:40;;;;;;;;;10.00;10.00;;;;;22.02;39.79;102970.44;4973676;28;45350;-65
2021/11/18 08:06:08;;;;;;;;;9.00;9.00;;;;;22.05;40.27;102965.75;4970804;28;45487;-65
2021/11/18 08:08:34;;;;;;;;;10.25;9.00;;;;;22.05;40.28;102964.88;4973154;28;45396;-66
2021/11/18 08:11:00;;;;;;;;;10.75;10.75;;;;;22.06;39.73;102967.44;4973042;28;45446;-65
2021/11/18 08:13:25;;;;;;;;;9.00;9.00;;;;;22.05;39.84;102970.19;4972610;28;45633;-65
2021/11/18 08:15:50;;;;;;;;;9.00;9.00;;;;;22.05;39.74;102971.03;4971088;28;46401;-65
2021/11/18 08:18:16;;;;;;;;;8.75;8.50;;;;;22.07;40.27;102985.00;4974403;28;45221;-67
2021/11/18 08:20:42;;;;;;;;;10.50;8.00;;;;;22.05;39.72;102975.50;4973789;28;45338;-68
2021/11/18 08:23:07;;;;;;;;;12.25;10.75;;;;;22.04;39.99;102972.00;4971560;28;45352;-65
2021/11/18 08:25:35;;;;;;;;;10.00;10.00;;;;;22.10;40.05;102986.56;4972630;28;45350;-65
2021/11/18 08:28:00;;;;;;;;;12.25;9.00;;;;;22.02;39.82;102971.28;4971412;28;45523;-65
2021/11/18 08:30:30;;;;;;;;;11.00;9.50;;;;;22.10;39.52;102991.00;4972942;28;45759;-65
2021/11/18 08:32:58;;;;;;;;;10.00;7.00;;;;;22.09;39.32;102997.28;4974934;28;45602;-65
2021/11/18 08:35:31;;;;;;;;;13.25;11.25;;;;;22.07;39.98;102989.44;4972468;28;46676;-65
2021/11/18 08:38:07;;;;;;;;;11.75;10.00;;;;;22.03;39.46;102980.94;4963103;28;45228;-64
2021/11/18 08:40:34;;;;;;;;;11.00;8.50;;;;;22.06;39.87;102995.75;4959119;28;45652;-65
2021/11/18 08:43:00;;;;;;;;;10.75;8.75;;;;;22.05;39.76;102999.34;4969819;28;45339;-65
2021/11/18 08:45:26;;;;;;;;;11.75;9.00;;;;;22.00;40.04;102983.00;4971006;28;46119;-65
2021/11/18 08:47:52;;;;;;;;;2.75;2.75;;;;;22.03;39.67;102996.84;4970438;28;45312;-65
2021/11/18 08:50:20;;;;;;;;;12.00;11.00;;;;;22.03;39.47;102999.50;4968492;28;45478;-65
2021/11/18 08:52:48;;;;;;;;;10.00;8.50;;;;;22.02;39.56;102991.66;4968501;28;45477;-65
2021/11/18 08:55:21;;;;;;;;;10.00;10.00;;;;;22.03;39.77;102983.59;4966790;28;45425;-66
2021/11/18 08:57:48;;;;;;;;;11.00;10.00;;;;;22.03;39.45;102980.94;4971693;28;45280;-65
2021/11/18 09:00:43;;;;;;;;;12.00;10.00;;;;;22.04;39.66;102977.28;4969492;28;45342;-65
2021/11/18 09:03:09;;;;;;;;;15.00;11.00;;;;;22.03;39.86;102970.34;4970630;28;45426;-65
2021/11/18 09:05:36;;;;;;;;;9.50;7.00;;;;;22.04;39.57;102987.09;4967980;28;47373;-65
2021/11/18 09:08:04;;;;;;;;;9.50;8.00;;;;;22.03;39.69;102988.03;4967726;28;45638;-65
2021/11/18 09:10:30;;;;;;;;;9.75;8.50;;;;;22.00;39.64;102983.84;4967547;28;45345;-65
2021/11/18 09:12:57;;;;;;;;;8.25;8.25;;;;;22.03;39.68;102991.53;4970601;28;45442;-66
2021/11/18 09:15:26;;;;;;;;;9.00;9.00;;;;;22.04;39.90;102998.50;4970652;28;46304;-65
2021/11/18 09:17:53;;;;;;;;;11.25;9.00;;;;;22.02;39.39;102989.00;4963821;28;45313;-64
2021/11/18 09:20:21;;;;;;;;;9.00;8.00;;;;;22.04;40.00;102995.03;4964019;28;45355;-65
2021/11/18 09:22:47;;;;;;;;;9.00;9.00;;;;;21.96;40.02;102983.25;4967957;28;45451;-65
2021/11/18 09:25:14;;;;;;;;;12.00;9.75;;;;;22.04;40.03;102995.84;4967714;28;46412;-64
2021/11/18 09:27:45;;;;;;;;;12.75;9.75;;;;;22.04;39.28;103003.00;4956968;28;45344;-64
2021/11/18 09:30:18;;;;;;;;;11.50;11.00;;;;;22.02;39.94;103008.41;4970241;28;45220;-65
2021/11/18 09:32:43;;;;;;;;;8.75;8.75;;;;;22.01;39.85;103005.88;4968816;28;45440;-64
2021/11/18 09:35:12;;;;;;;;;10.75;9.50;;;;;22.02;39.83;103024.31;4966243;28;45323;-64
2021/11/18 09:37:38;;;;;;;;;11.00;8.75;;;;;21.99;39.76;103024.56;4967661;28;45481;-65
2021/11/18 09:40:07;;;;;;;;;9.25;9.25;;;;;21.99;39.66;103031.69;4967188;28;45355;-66
2021/11/18 09:42:49;;;;;;;;;11.00;9.00;;;;;22.03;39.94;103031.31;4971374;28;45574;-65
2021/11/18 09:45:23;;;;;;;;;9.25;9.25;;;;;22.02;39.70;103029.59;4970007;28;45390;-65
2021/11/18 09:48:19;;;;;;;;;12.75;9.25;;;;;22.05;39.72;103039.97;4969235;28;45288;-65
2021/11/18 09:50:50;;;;;;;;;9.50;7.00;;;;;22.04;39.84;103038.25;4968751;28;45374;-64
2021/11/18 09:53:41;;;;;;;;;9.25;9.25;;;;;22.06;39.33;103046.13;4966225;28;45435;-64
2021/11/18 09:56:15;;;;;;;;;13.50;8.00;;;;;22.06;40.21;103048.75;4971842;28;45288;-65
2021/11/18 09:58:55;;;;;;;;;9.00;9.00;;;;;22.07;39.45;103045.13;4968614;28;45706;-65
2021/11/18 10:01:57;;;;;;;;;9.50;8.50;;;;;22.07;39.76;103048.63;4969756;28;45489;-65
2021/11/18 10:04:43;;;;;;;;;9.50;8.50;;;;;22.06;39.90;103046.13;4957767;28;45551;-65
2021/11/18 10:07:30;;;;;;;;;9.00;8.75;;;;;22.07;39.74;103048.63;4956055;28;45672;-65
2021/11/18 10:10:13;;;;;;;;;9.25;9.00;;;;;22.06;39.47;103051.41;4956239;28;45424;-65
2021/11/18 10:13:12;;;;;;;;;12.50;9.00;;;;;22.03;39.55;103055.16;4955083;28;45312;-66
2021/11/18 10:15:44;;;;;;;;;9.50;9.25;;;;;22.05;39.46;103061.16;4971723;28;45415;-66
2021/11/18 10:18:27;;;;;;;;;13.25;10.75;;;;;21.99;39.77;103053.72;4969515;28;46215;-66
2021/11/18 10:21:08;;;;;;;;;9.75;8.75;;;;;22.05;39.51;103058.50;4958141;28;45352;-66
2021/11/18 10:23:34;;;;;;;;;9.50;8.25;;;;;22.03;39.22;103063.09;4965333;28;45525;-66
2021/11/18 10:26:07;;;;;;;;;7.50;7.25;;;;;22.03;39.71;103054.31;4967278;28;45505;-66
2021/11/18 10:29:00;;;;;;;;;10.50;9.50;;;;;22.03;39.71;103054.31;4967135;28;46088;-64
2021/11/18 10:31:37;;;;;;;;;13.75;10.75;;;;;22.03;39.50;103060.47;4969219;28;45352;-64
2021/11/18 10:34:49;;;;;;;;;12.50;10.00;;;;;22.03;39.82;103059.63;4968503;28;45375;-65
2021/11/18 10:37:29;;;;;;;;;12.25;9.75;;;;;22.03;39.74;103056.97;5039581;28;45431;-64
2021/11/18 10:40:07;;;;;;;;;8.50;6.25;;;;;22.03;39.67;103052.50;5052434;28;46258;-64
2021/11/18 10:42:45;;;;;;;;;9.75;8.25;;;;;22.03;39.28;103055.16;5036050;28;45365;-64
2021/11/18 10:45:40;;;;;;;;;10.25;9.50;;;;;22.03;39.96;103044.56;5049213;28;45425;-64
2021/11/18 10:48:05;;;;;;;;;12.50;9.25;;;;;22.02;39.50;103050.81;5052981;28;45353;-64
2021/11/18 10:51:06;;;;;;;;;10.50;10.00;;;;;22.03;39.59;103049.84;5041205;28;46404;-64
2021/11/18 10:53:43;;;;;;;;;11.25;9.75;;;;;21.99;39.61;103044.94;4970724;28;45615;-64
2021/11/18 10:56:16;;;;;;;;;11.75;10.25;;;;;22.03;39.73;103051.66;4971269;28;45405;-64
2021/11/18 10:58:45;;;;;;;;;10.25;9.50;;;;;22.00;39.94;103049.25;4965972;28;46470;-64
2021/11/18 11:01:28;;;;;;;;;10.50;8.00;;;;;22.04;39.21;103053.34;4966068;28;46985;-64
2021/11/18 11:03:56;;;;;;;;;9.75;8.00;;;;;22.03;39.31;103043.69;4969564;28;45509;-64
2021/11/18 11:06:25;;;;;;;;;10.00;10.00;;;;;22.02;39.68;103037.56;4973391;28;45471;-64
2021/11/18 11:09:13;;;;;;;;;10.25;10.00;;;;;22.03;39.30;103033.09;4970103;28;45621;-64
2021/11/18 11:11:57;;;;;;;;;9.50;7.75;;;;;22.04;39.76;103032.97;4970012;28;46023;-64
2021/11/18 11:14:50;;;;;;;;;9.25;9.25;;;;;22.04;39.35;103043.56;4986679;28;45341;-64
2021/11/18 11:17:21;;;;;;;;;9.75;9.75;;;;;22.02;39.50;103045.50;4990009;28;45506;-64
2021/11/18 11:19:50;;;;;;;;;9.50;9.25;;;;;21.99;39.63;103040.47;4992871;28;45572;-64
2021/11/18 11:22:30;;;;;;;;;14.00;11.25;;;;;22.03;39.50;103038.41;4993749;28;46398;-64
2021/11/18 11:25:01;;;;;;;;;10.00;8.00;;;;;22.03;39.47;103041.06;4994450;28;45282;-64